Latest Coastal Weather Observations for Low Rocky Point

IDT60701

Issued at 1:02 pm EDT Tuesday 2 March 2021 (issued every 10 minutes, with the page automatically refreshed every 10 minutes)

About coastal observations | Map of coastal stations | Coastal observations for TAS | Marine services | Other Formats
Station Details ID: 097080 Name: LOW ROCKY POINT Lat: -42.98 Lon: 145.50 Height: 34.0 m
Data from the previous 72 hours. | See also: Recent months at Low Rocky Point
Date/Time
EDT
Wind Sea
Height
m
Swell Vis
km
Cloud Weather Temp
°C
Press
MSL
hPa
Rain since
9am
mm
Dir  Spd
kts
Gust
kts
Height
m
Period
s
Dir
02/01:00pm SW 15 22 - - - - - - - 10.5 1017.2 -
02/12:30pm S 14 24 - - - - - - - 11.3 1017.2 -
02/12:00pm SSW 17 23 - - - - - - - 13.5 1017.2 -
02/11:30am SSW 17 25 - - - - - - - 13.5 1017.1 -
02/11:11am SSW 15 25 - - - - - - - 12.4 1016.9 -
02/11:00am SSW 16 23 - - - - - - - 12.4 1016.8 -
02/10:30am S 18 25 - - - - - - - 11.8 1016.8 -
02/10:00am SSW 16 25 - - - - - - - 12.6 1016.6 -
02/09:30am SSW 17 26 - - - - - - - 12.2 1016.3 -
02/09:21am SSW 16 26 - - - - - - - 11.5 1016.2 -
02/09:00am SSW 17 24 - - - - - - - 11.5 1016.1 -
02/08:30am SSW 17 23 - - - - - - - 10.8 1016.0 -
02/08:00am SSW 15 23 - - - - - - - 10.2 1015.6 -
02/07:48am S 17 25 - - - - - - - 9.8 1015.5 -
02/07:30am S 20 29 - - - - - - - 10.0 1015.3 -
02/07:21am S 16 26 - - - - - - - 10.1 1015.2 -
02/07:00am SSW 17 25 - - - - - - - 10.2 1015.2 -
02/06:35am SSW 21 31 - - - - - - - 10.6 1014.6 -
02/06:30am SSW 19 28 - - - - - - - 10.4 1014.6 -
02/06:02am SSW 15 25 - - - - - - - 10.7 1014.5 -
02/06:00am SSW 17 25 - - - - - - - 10.7 1014.4 -
02/05:35am SSW 18 28 - - - - - - - 10.5 1014.1 -
02/05:30am SSW 18 26 - - - - - - - 10.3 1014.0 -
02/05:00am SSW 20 28 - - - - - - - 10.5 1013.7 -
02/04:30am SSW 18 27 - - - - - - - 9.7 1013.5 -
02/04:00am SSW 19 27 - - - - - - - 11.0 1013.3 -
02/03:30am SSW 20 30 - - - - - - - 10.8 1013.1 -
02/03:00am SSW 21 31 - - - - - - - 10.6 1013.0 -
02/02:49am SSW 20 30 - - - - - - - 10.9 1012.9 -
02/02:30am SSW 19 26 - - - - - - - 10.2 1012.9 -
02/02:02am SW 22 33 - - - - - - - 10.6 1012.9 -
02/02:00am SW 22 30 - - - - - - - 10.7 1012.9 -
02/01:34am SW 24 34 - - - - - - - 11.6 1012.6 -
02/01:30am SW 23 32 - - - - - - - 11.4 1012.6 -
02/01:00am SW 22 32 - - - - - - - 11.1 1012.3 -
02/12:41am SW 21 31 - - - - - - - 11.2 1012.2 -
02/12:30am SW 24 31 - - - - - - - 11.2 1012.1 -
02/12:14am SW 23 33 - - - - - - - 11.3 1011.9 -
02/12:00am SW 23 32 - - - - - - - 11.3 1011.7 -
 
Date/Time
EDT
Wind Sea
Height
m
Swell Vis
km
Cloud Weather Temp
°C
Press
MSL
hPa
Rain since
9am
mm
Dir  Spd
kts
Gust
kts
Height
m
Period
s
Dir
01/11:30pm SSW 24 34 - - - - - - - 10.8 1011.5 -
01/11:05pm SSW 25 35 - - - - - - - 11.1 1011.3 -
01/11:00pm SSW 26 35 - - - - - - - 11.1 1011.2 -
01/10:30pm SSW 23 36 - - - - - - - 10.9 1010.8 -
01/10:00pm SSW 25 38 - - - - - - - 10.9 1010.4 -
01/09:30pm SSW 25 38 - - - - - - - 10.6 1009.9 -
01/09:00pm SSW 25 37 - - - - - - - 10.5 1009.3 -
01/08:38pm SSW 27 45 - - - - - - - 11.7 1008.8 -
01/08:30pm SSW 25 35 - - - - - - - 11.7 1008.6 -
01/08:00pm SW 27 37 - - - - - - - 11.6 1008.0 -
01/07:37pm SSW 25 35 - - - - - - - 11.1 1007.6 -
01/07:30pm SW 25 34 - - - - - - - 11.5 1007.4 -
01/07:03pm SW 25 35 - - - - - - - 11.3 1007.1 -
01/07:00pm SW 26 35 - - - - - - - 11.3 1007.1 -
01/06:30pm SW 26 38 - - - - - - - 11.6 1006.7 -
01/06:00pm SW 25 36 - - - - - - - 11.4 1006.3 -
01/05:30pm SW 26 37 - - - - - - - 11.0 1005.9 -
01/05:00pm SW 26 39 - - - - - - - 11.1 1005.2 -
01/04:30pm SW 26 41 - - - - - - - 11.5 1004.1 -
01/04:27pm SW 23 41 - - - - - - - 11.8 1003.9 -
01/04:21pm WSW 20 30 - - - - - - - 12.0 1004.2 -
01/04:15pm W 15 27 - - - - - - - 13.1 1004.2 -
01/04:00pm WNW 14 16 - - - - - - - 14.4 1004.1 -
01/03:30pm WNW 15 17 - - - - - - - 12.9 1004.7 -
01/03:00pm W 15 19 - - - - - - - 12.0 1005.4 -
01/02:30pm WSW 16 21 - - - - - - - 11.7 1005.4 -
01/02:00pm WSW 28 35 - - - - - - - 11.6 1005.1 -
01/01:35pm WSW 24 34 - - - - - - - 12.6 1004.6 -
01/01:30pm WSW 27 34 - - - - - - - 12.5 1004.6 -
01/01:14pm W 20 33 - - - - - - - 12.9 1004.7 -
01/01:00pm WNW 20 24 - - - - - - - 12.4 1004.7 -
01/12:30pm WNW 23 28 - - - - - - - 12.8 1004.7 -
01/12:19pm WNW 15 26 - - - - - - - 14.0 1004.7 -
01/12:00pm WNW 21 24 - - - - - - - 13.5 1005.2 -
01/11:30am NW 17 21 - - - - - - - 17.4 1005.3 -
01/11:00am WNW 17 21 - - - - - - - 16.8 1005.9 -
01/10:30am WNW 18 22 - - - - - - - 15.2 1006.2 -
01/10:00am NW 17 22 - - - - - - - 15.5 1006.5 -
01/09:30am NW 15 19 - - - - - - - 15.9 1006.6 -
01/09:00am NW 12 15 - - - - - - - 15.4 1006.8 -
01/08:30am WNW 12 15 - - - - - - - 15.0 1006.9 -
01/08:00am WNW 12 14 - - - - - - - 14.7 1007.3 -
01/07:30am NW 9 11 - - - - - - - 14.3 1007.3 -
01/07:00am WNW 10 13 - - - - - - - 14.3 1007.4 -
01/06:30am NW 7 8 - - - - - - - 14.1 1007.3 -
01/06:00am NW 6 7 - - - - - - - 14.0 1007.4 -
01/05:30am WNW 7 9 - - - - - - - 14.0 1007.6 -
01/05:00am W 6 8 - - - - - - - 14.1 1007.7 -
01/04:30am WSW 6 8 - - - - - - - 14.0 1007.8 -
01/04:00am W 6 7 - - - - - - - 14.1 1008.0 -
01/03:30am W 6 7 - - - - - - - 14.2 1008.4 -
01/03:00am S 3 4 - - - - - - - 14.1 1008.3 -
01/02:30am SSW 1 3 - - - - - - - 14.2 1008.7 -
01/02:00am SSE 4 5 - - - - - - - 13.9 1008.8 -
01/01:30am SSE 4 5 - - - - - - - 14.1 1009.2 -
01/01:00am SE 5 7 - - - - - - - 14.3 1009.4 -
01/12:30am SE 6 8 - - - - - - - 14.3 1009.7 -
01/12:00am SSE 6 7 - - - - - - - 14.4 1010.2 -
 
Date/Time
EDT
Wind Sea
Height
m
Swell Vis
km
Cloud Weather Temp
°C
Press
MSL
hPa
Rain since
9am
mm
Dir  Spd
kts
Gust
kts
Height
m
Period
s
Dir
28/11:30pm SSE 6 8 - - - - - - - 14.4 1010.5 -
28/11:00pm SSE 8 11 - - - - - - - 14.4 1010.6 -
28/10:30pm SSE 8 10 - - - - - - - 14.4 1010.8 -
28/10:00pm S 7 9 - - - - - - - 14.5 1011.0 -
28/09:30pm S 6 7 - - - - - - - 14.7 1011.2 -
28/09:00pm S 6 7 - - - - - - - 14.8 1011.1 -
28/08:30pm S 5 6 - - - - - - - 14.8 1011.0 -
28/08:00pm SSE 5 7 - - - - - - - 15.0 1010.8 -
28/07:30pm SE 7 9 - - - - - - - 15.6 1010.6 -
28/07:00pm SE 8 11 - - - - - - - 15.9 1010.5 -
28/06:30pm SE 7 8 - - - - - - - 16.4 1010.7 -
28/06:00pm SE 6 8 - - - - - - - 16.3 1010.8 -
28/05:30pm SSE 5 7 - - - - - - - 16.5 1010.9 -
28/05:00pm SSE 6 7 - - - - - - - 17.4 1011.1 -
28/04:30pm SSE 6 8 - - - - - - - 17.3 1011.4 -
28/04:00pm WSW 6 8 - - - - - - - 17.9 1011.7 -
28/03:30pm WSW 6 8 - - - - - - - 18.0 1011.9 -
28/03:00pm WSW 8 9 - - - - - - - 18.4 1012.3 -
28/02:30pm W 9 11 - - - - - - - 17.7 1012.6 -
28/02:00pm W 9 12 - - - - - - - 18.4 1012.9 -
28/01:30pm W 8 11 - - - - - - - 17.7 1013.1 -
28/01:00pm W 8 9 - - - - - - - 17.9 1013.3 -
28/12:30pm WNW 8 10 - - - - - - - 17.9 1013.6 -
28/12:00pm WNW 9 11 - - - - - - - 17.4 1013.8 -
28/11:30am WNW 10 11 - - - - - - - 16.7 1013.9 -
28/11:00am WNW 10 12 - - - - - - - 17.0 1013.9 -
28/10:30am NW 9 12 - - - - - - - 17.2 1013.8 -
28/10:00am NW 8 10 - - - - - - - 16.1 1013.6 -
28/09:30am NW 8 10 - - - - - - - 16.1 1013.6 -
28/09:00am NNW 6 8 - - - - - - - 15.4 1013.3 -
28/08:30am N 7 9 - - - - - - - 13.8 1013.3 -
28/08:00am N 9 10 - - - - - - - 11.8 1013.2 -
28/07:30am N 9 11 - - - - - - - 11.8 1013.3 -
28/07:00am N 8 10 - - - - - - - 11.8 1013.2 -
28/06:30am NNE 8 9 - - - - - - - 11.5 1012.9 -
28/06:00am N 8 8 - - - - - - - 11.6 1012.8 -
28/05:30am N 6 7 - - - - - - - 11.8 1012.9 -
28/05:00am N 7 8 - - - - - - - 12.0 1012.9 -
28/04:30am N 7 8 - - - - - - - 11.7 1013.0 -
28/04:00am N 7 8 - - - - - - - 12.1 1013.1 -
28/03:30am N 7 9 - - - - - - - 11.9 1013.2 -
28/03:00am N 5 6 - - - - - - - 12.0 1013.2 -
28/02:30am N 5 6 - - - - - - - 11.9 1013.4 -
28/02:00am N 5 6 - - - - - - - 12.0 1013.6 -
28/01:30am N 5 6 - - - - - - - 12.2 1013.7 -
28/01:00am CALM 0 2 - - - - - - - 12.8 1013.8 -
28/12:30am SSE 3 6 - - - - - - - 13.1 1013.8 -
28/12:00am SSE 7 9 - - - - - - - 13.2 1013.7 -
 
Date/Time
EDT
Wind Sea
Height
m
Swell Vis
km
Cloud Weather Temp
°C
Press
MSL
hPa
Rain since
9am
mm
Dir  Spd
kts
Gust
kts
Height
m
Period
s
Dir
27/11:30pm SE 4 7 - - - - - - - 13.2 1014.1 -
27/11:00pm SSE 7 8 - - - - - - - 13.6 1014.1 -
27/10:30pm SE 6 8 - - - - - - - 13.3 1014.3 -
27/10:00pm SSW 6 8 - - - - - - - 13.7 1014.6 -
27/09:30pm WSW 3 5 - - - - - - - 13.9 1014.9 -
27/09:00pm NW 4 5 - - - - - - - 14.0 1015.1 -
27/08:30pm WNW 4 5 - - - - - - - 14.1 1014.8 -
27/08:00pm S 4 4 - - - - - - - 14.3 1014.2 -
27/07:30pm WSW 5 7 - - - - - - - 15.1 1014.3 -
27/07:00pm SW 4 5 - - - - - - - 15.5 1014.0 -
27/06:30pm W 6 8 - - - - - - - 16.5 1013.9 -
27/06:00pm W 5 6 - - - - - - - 17.1 1013.8 -
27/05:30pm W 5 7 - - - - - - - 17.1 1013.7 -
27/05:00pm WSW 5 7 - - - - - - - 18.0 1013.8 -
27/04:30pm SSE 6 9 - - - - - - - 18.3 1013.8 -
27/04:00pm S 7 8 - - - - - - - 16.7 1013.9 -
27/03:30pm SSE 7 10 - - - - - - - 17.5 1014.1 -
27/03:00pm S 7 9 - - - - - - - 16.3 1014.2 -
27/02:30pm S 8 11 - - - - - - - 16.9 1014.1 -
27/02:00pm SSE 9 11 - - - - - - - 17.4 1014.2 -
27/01:30pm SSE 9 12 - - - - - - - 18.1 1014.4 -

Other formats

Comma delimited format used in spreadsheet applications
http://www.bom.gov.au/fwo/IDT60701/IDT60701.95961.axf

JavaScript Object Notation format (JSON) in row-major order
http://www.bom.gov.au/fwo/IDT60701/IDT60701.95961.json

Data quality

Most of these data are generated automatically and are frequently updated. Quality checks on data are not normally performed. It is possible for incorrect values to appear. Refer to information at About Latest Weather Observations and please check the disclaimer before using these data.